createdAt,value
2019-03-31T00:01:24.800Z,17.55
2019-03-31T00:02:31.613Z,17.02
2019-03-31T00:03:38.423Z,17.35
2019-03-31T00:04:45.188Z,17.12
2019-03-31T00:05:50.718Z,17.73
2019-03-31T00:06:56.731Z,17.80
2019-03-31T00:08:03.613Z,17.52
2019-03-31T00:09:09.827Z,17.32
2019-03-31T00:10:15.601Z,16.93
2019-03-31T00:11:21.955Z,17.50
2019-03-31T00:12:29.486Z,18.02
2019-03-31T00:13:36.375Z,16.90
2019-03-31T00:14:41.863Z,18.00
2019-03-31T00:15:47.297Z,18.60
2019-03-31T00:16:54.713Z,19.37
2019-03-31T00:18:02.405Z,17.65
2019-03-31T00:19:12.365Z,18.50
2019-03-31T00:20:19.734Z,17.92
2019-03-31T00:21:33.460Z,17.60
2019-03-31T00:22:39.896Z,16.73
2019-03-31T00:23:47.232Z,17.12
2019-03-31T00:24:53.757Z,17.45
2019-03-31T00:26:00.248Z,17.85
2019-03-31T00:27:06.653Z,18.45
2019-03-31T00:28:12.409Z,18.95
2019-03-31T00:29:18.619Z,19.60
2019-03-31T00:30:26.417Z,20.37
2019-03-31T00:31:33.245Z,21.17
2019-03-31T00:32:40.401Z,21.37
2019-03-31T00:33:48.059Z,19.73
2019-03-31T00:34:55.064Z,20.43
2019-03-31T00:36:01.120Z,20.02
2019-03-31T00:37:07.966Z,19.27
2019-03-31T00:38:15.212Z,19.42
2019-03-31T00:39:22.837Z,20.48
2019-03-31T00:40:30.200Z,20.05
2019-03-31T00:41:35.875Z,21.15
2019-03-31T00:42:42.719Z,21.12
2019-03-31T00:43:49.030Z,21.00
2019-03-31T00:44:54.873Z,20.68
2019-03-31T00:46:01.245Z,20.30
2019-03-31T00:47:06.798Z,20.50
2019-03-31T00:48:13.007Z,22.60
2019-03-31T00:49:19.609Z,21.35
2019-03-31T00:50:26.176Z,21.57
2019-03-31T00:51:32.968Z,21.12
2019-03-31T00:52:39.723Z,22.07
2019-03-31T00:53:45.942Z,21.62
2019-03-31T00:54:52.432Z,21.37
2019-03-31T00:55:59.782Z,22.17
2019-03-31T00:57:05.812Z,22.27
2019-03-31T00:58:11.289Z,22.70
2019-03-31T00:59:17.470Z,22.27
2019-03-31T01:00:43.313Z,22.98
2019-03-31T01:01:55.055Z,21.68
2019-03-31T01:03:01.285Z,20.60
2019-03-31T01:04:07.845Z,20.32
2019-03-31T01:05:13.707Z,20.65
2019-03-31T01:06:21.447Z,20.68
2019-03-31T01:07:47.708Z,19.50
2019-03-31T01:08:54.566Z,19.57
2019-03-31T01:10:00.431Z,19.55
2019-03-31T01:11:13.605Z,18.60
2019-03-31T01:12:20.655Z,19.62
2019-03-31T01:13:26.998Z,18.45
2019-03-31T01:14:33.890Z,18.92
2019-03-31T01:15:39.862Z,20.35
2019-03-31T01:16:46.311Z,18.80
2019-03-31T01:17:53.121Z,19.20
2019-03-31T01:18:59.872Z,18.27
2019-03-31T01:20:05.767Z,18.60
2019-03-31T01:21:21.768Z,18.60
2019-03-31T01:22:27.528Z,17.67
2019-03-31T01:23:33.587Z,18.32
2019-03-31T01:24:40.152Z,18.23
2019-03-31T01:25:45.904Z,18.98
2019-03-31T01:26:52.467Z,19.70
2019-03-31T01:27:58.319Z,19.67
2019-03-31T01:29:04.833Z,19.77
2019-03-31T01:30:11.998Z,20.65
2019-03-31T01:31:18.350Z,22.30
2019-03-31T01:32:25.205Z,23.32
2019-03-31T01:33:31.163Z,20.57
2019-03-31T01:34:38.331Z,20.90
2019-03-31T01:35:44.098Z,20.12
2019-03-31T01:36:50.182Z,19.37
2019-03-31T01:37:56.530Z,19.30
2019-03-31T01:39:03.335Z,19.27
2019-03-31T01:40:09.600Z,17.98
2019-03-31T01:41:16.579Z,18.90
2019-03-31T01:42:23.467Z,18.87
2019-03-31T01:43:30.424Z,19.25
2019-03-31T01:44:37.478Z,19.02
2019-03-31T01:45:43.979Z,19.52
2019-03-31T01:46:50.551Z,18.77
2019-03-31T01:47:56.474Z,18.95
2019-03-31T01:49:02.782Z,18.92
2019-03-31T01:50:09.778Z,19.40
2019-03-31T01:51:15.546Z,18.50
2019-03-31T01:52:22.156Z,18.62
2019-03-31T01:53:28.993Z,17.42
2019-03-31T01:54:35.045Z,19.00
2019-03-31T01:55:40.859Z,18.35
2019-03-31T01:56:47.687Z,18.90
2019-03-31T01:57:54.174Z,18.42
2019-03-31T01:59:00.600Z,18.45
2019-03-31T02:00:10.323Z,19.17
2019-03-31T02:01:17.773Z,17.70
2019-03-31T02:02:28.130Z,19.23
2019-03-31T02:03:33.903Z,18.23
2019-03-31T02:04:40.538Z,17.75
2019-03-31T02:05:47.087Z,18.50
2019-03-31T02:06:53.026Z,17.87
2019-03-31T02:07:59.953Z,17.70
2019-03-31T02:09:06.371Z,17.48
2019-03-31T02:10:11.945Z,18.20
2019-03-31T02:11:18.170Z,18.65
2019-03-31T02:12:23.951Z,17.37
2019-03-31T02:13:30.475Z,18.77
2019-03-31T02:14:37.121Z,17.67
2019-03-31T02:15:42.882Z,17.95
2019-03-31T02:16:49.509Z,18.52
2019-03-31T02:17:55.536Z,17.95
2019-03-31T02:19:02.310Z,17.98
2019-03-31T02:20:08.523Z,17.60
2019-03-31T02:21:15.234Z,17.80
2019-03-31T02:22:22.006Z,17.15
2019-03-31T02:23:29.411Z,17.57
2019-03-31T02:24:36.646Z,18.15
2019-03-31T02:25:42.693Z,17.95
2019-03-31T02:26:49.569Z,17.50
2019-03-31T02:27:56.086Z,17.12
2019-03-31T02:29:03.002Z,17.50
2019-03-31T02:30:09.017Z,18.48
2019-03-31T02:31:14.782Z,17.70
2019-03-31T02:32:23.908Z,18.27
2019-03-31T02:33:29.419Z,18.42
2019-03-31T02:34:36.546Z,17.90
2019-03-31T02:35:42.051Z,18.75
2019-03-31T02:36:49.022Z,17.62
2019-03-31T02:37:55.343Z,17.77
2019-03-31T02:39:01.959Z,17.42
2019-03-31T02:40:07.766Z,18.07
2019-03-31T02:41:14.652Z,18.05
2019-03-31T02:42:21.232Z,18.30
2019-03-31T02:43:27.787Z,18.87
2019-03-31T02:44:33.512Z,19.50
2019-03-31T02:45:40.142Z,17.87
2019-03-31T02:46:46.646Z,17.30
2019-03-31T02:47:52.417Z,17.90
2019-03-31T02:48:58.979Z,18.23
2019-03-31T02:50:04.612Z,18.15
2019-03-31T02:51:11.349Z,18.25
2019-03-31T02:52:17.699Z,17.85
2019-03-31T02:53:24.263Z,18.17
2019-03-31T02:54:30.294Z,18.25
2019-03-31T02:55:37.202Z,17.85
2019-03-31T02:56:44.407Z,18.25
2019-03-31T02:57:50.856Z,18.77
2019-03-31T02:58:58.132Z,17.35
2019-03-31T03:00:04.638Z,17.60
2019-03-31T03:01:11.472Z,16.87
2019-03-31T03:02:17.876Z,18.73
2019-03-31T03:03:23.944Z,16.97
2019-03-31T03:04:30.810Z,18.55
2019-03-31T03:05:38.767Z,17.73
2019-03-31T03:06:45.216Z,17.35
2019-03-31T03:07:52.305Z,17.32
2019-03-31T03:09:00.367Z,18.40
2019-03-31T03:10:07.491Z,17.07
2019-03-31T03:11:18.018Z,17.70
2019-03-31T03:12:26.312Z,17.80
2019-03-31T03:13:33.820Z,18.37
2019-03-31T03:14:40.375Z,17.57
2019-03-31T03:16:11.404Z,17.73
2019-03-31T03:17:17.449Z,17.40
2019-03-31T03:18:23.509Z,17.52
2019-03-31T03:19:30.517Z,17.37
2019-03-31T03:20:36.570Z,16.57
2019-03-31T03:21:43.438Z,18.67
2019-03-31T03:22:50.057Z,17.50
2019-03-31T03:23:56.831Z,16.15
2019-03-31T03:25:03.285Z,17.48
2019-03-31T03:26:09.122Z,17.62
2019-03-31T03:27:15.723Z,17.17
2019-03-31T03:28:22.135Z,17.48
2019-03-31T03:29:28.818Z,16.75
2019-03-31T03:30:35.389Z,17.07
2019-03-31T03:31:42.604Z,16.75
2019-03-31T03:33:13.464Z,17.12
2019-03-31T03:33:57.069Z,17.60
2019-03-31T03:35:03.571Z,17.98
2019-03-31T03:36:09.361Z,18.37
2019-03-31T03:37:15.119Z,18.95
2019-03-31T03:38:21.173Z,23.50
2019-03-31T03:39:26.955Z,26.00
2019-03-31T03:40:33.396Z,26.65
2019-03-31T03:41:39.990Z,25.02
2019-03-31T03:42:46.525Z,25.43
2019-03-31T03:43:59.642Z,24.65
2019-03-31T03:45:01.073Z,25.12
2019-03-31T03:46:06.838Z,25.10
2019-03-31T03:47:13.402Z,24.18
2019-03-31T03:48:20.625Z,22.25
2019-03-31T03:49:28.268Z,21.77
2019-03-31T03:50:34.356Z,20.88
2019-03-31T03:51:41.275Z,20.82
2019-03-31T03:52:47.335Z,19.77
2019-03-31T03:53:54.259Z,21.20
2019-03-31T03:55:00.042Z,19.17
2019-03-31T03:56:05.746Z,19.87
2019-03-31T03:57:11.745Z,20.72
2019-03-31T03:58:17.243Z,20.60
2019-03-31T03:59:24.090Z,20.27
2019-03-31T04:00:31.777Z,21.12
2019-03-31T04:01:37.753Z,20.20
2019-03-31T04:02:43.552Z,20.00
2019-03-31T04:03:49.525Z,20.70
2019-03-31T04:04:56.797Z,21.15
2019-03-31T04:06:03.786Z,20.48
2019-03-31T04:07:10.659Z,20.23
2019-03-31T04:08:17.542Z,19.82
2019-03-31T04:09:23.873Z,19.85
2019-03-31T04:11:15.224Z,19.85
2019-03-31T04:12:20.762Z,19.60
2019-03-31T04:13:27.590Z,19.27
2019-03-31T04:14:34.159Z,19.57
2019-03-31T04:15:40.216Z,20.27
2019-03-31T04:16:46.893Z,19.12
2019-03-31T04:17:54.057Z,19.30
2019-03-31T04:19:00.779Z,19.82
2019-03-31T04:20:06.731Z,19.42
2019-03-31T04:21:13.095Z,19.50
2019-03-31T04:22:20.373Z,20.37
2019-03-31T04:23:26.396Z,19.10
2019-03-31T04:24:34.185Z,18.32
2019-03-31T04:25:41.859Z,18.05
2019-03-31T04:26:47.684Z,19.27
2019-03-31T04:27:53.640Z,19.17
2019-03-31T04:28:59.416Z,19.27
2019-03-31T04:30:05.214Z,18.55
2019-03-31T04:31:11.275Z,18.27
2019-03-31T04:32:17.051Z,17.87
2019-03-31T04:33:23.967Z,18.87
2019-03-31T04:34:30.643Z,19.23
2019-03-31T04:35:37.177Z,18.98
2019-03-31T04:36:43.924Z,18.10
2019-03-31T04:37:49.974Z,19.00
2019-03-31T04:38:59.919Z,19.57
2019-03-31T04:40:04.202Z,18.35
2019-03-31T04:41:10.577Z,18.82
2019-03-31T04:42:16.248Z,18.05
2019-03-31T04:43:22.447Z,18.45
2019-03-31T04:44:29.153Z,18.12
2019-03-31T04:45:34.928Z,17.92
2019-03-31T04:46:41.300Z,18.42
2019-03-31T04:47:48.600Z,18.07
2019-03-31T04:48:56.784Z,18.45
2019-03-31T04:50:04.334Z,17.85
2019-03-31T04:51:10.327Z,19.07
2019-03-31T04:52:16.001Z,19.35
2019-03-31T04:53:22.015Z,18.05
2019-03-31T04:54:28.533Z,17.95
2019-03-31T04:55:35.808Z,18.02
2019-03-31T04:56:41.747Z,19.12
2019-03-31T04:57:48.596Z,18.30
2019-03-31T04:58:55.043Z,17.80
2019-03-31T05:00:02.115Z,17.95
2019-03-31T05:01:08.672Z,18.77
2019-03-31T05:02:14.359Z,19.15
2019-03-31T05:03:21.053Z,18.17
2019-03-31T05:04:30.768Z,18.70
2019-03-31T05:05:36.288Z,18.17
2019-03-31T05:06:45.320Z,18.40
2019-03-31T05:07:52.055Z,18.65
2019-03-31T05:08:58.741Z,17.87
2019-03-31T05:10:05.474Z,18.30
2019-03-31T05:11:12.327Z,17.37
2019-03-31T05:12:18.862Z,18.15
2019-03-31T05:13:25.151Z,17.95
2019-03-31T05:14:32.728Z,18.67
2019-03-31T05:15:40.706Z,16.87
2019-03-31T05:16:46.753Z,17.87
2019-03-31T05:17:53.863Z,18.10
2019-03-31T05:19:00.599Z,18.65
2019-03-31T05:20:06.515Z,18.12
2019-03-31T05:21:13.141Z,18.30
2019-03-31T05:22:19.823Z,17.85
2019-03-31T05:23:27.984Z,18.07
2019-03-31T05:24:34.833Z,19.02
2019-03-31T05:25:42.004Z,18.48
2019-03-31T05:26:49.077Z,18.12
2019-03-31T05:27:55.982Z,18.92
2019-03-31T05:29:01.759Z,17.10
2019-03-31T05:30:07.928Z,17.62
2019-03-31T05:31:14.063Z,16.65
2019-03-31T05:32:21.153Z,17.37
2019-03-31T05:33:28.016Z,18.12
2019-03-31T05:34:34.899Z,19.10
2019-03-31T05:35:40.656Z,18.05
2019-03-31T05:36:46.544Z,18.45
2019-03-31T05:37:53.097Z,17.80
2019-03-31T05:38:58.873Z,18.57
2019-03-31T05:40:04.662Z,17.62
2019-03-31T05:41:10.594Z,17.73
2019-03-31T05:42:17.431Z,17.32
2019-03-31T05:43:24.353Z,17.05
2019-03-31T05:44:30.552Z,17.87
2019-03-31T05:45:36.518Z,19.15
2019-03-31T05:46:43.466Z,18.00
2019-03-31T05:47:50.236Z,17.82
2019-03-31T05:48:57.716Z,17.87
2019-03-31T05:50:04.492Z,17.65
2019-03-31T05:51:10.832Z,18.05
2019-03-31T05:52:17.066Z,17.80
2019-03-31T05:53:22.795Z,17.90
2019-03-31T05:54:29.644Z,16.75
2019-03-31T05:55:35.513Z,17.75
2019-03-31T05:56:41.547Z,18.17
2019-03-31T05:57:47.896Z,18.07
2019-03-31T05:58:54.421Z,18.07
2019-03-31T06:00:01.365Z,16.93
2019-03-31T06:01:07.709Z,17.57
2019-03-31T06:02:14.260Z,18.17
2019-03-31T06:03:19.799Z,17.62
2019-03-31T06:04:33.135Z,18.48
2019-03-31T06:05:35.646Z,18.52
2019-03-31T06:06:42.776Z,18.20
2019-03-31T06:07:48.894Z,18.00
2019-03-31T06:08:55.431Z,19.75
2019-03-31T06:10:01.524Z,19.05
2019-03-31T06:11:07.485Z,19.07
2019-03-31T06:12:14.806Z,19.02
2019-03-31T06:13:21.096Z,20.95
2019-03-31T06:14:26.858Z,19.42
2019-03-31T06:15:32.646Z,18.07
2019-03-31T06:16:38.416Z,18.35
2019-03-31T06:17:45.153Z,19.12
2019-03-31T06:18:52.026Z,18.12
2019-03-31T06:19:57.779Z,18.35
2019-03-31T06:21:04.157Z,18.67
2019-03-31T06:22:10.808Z,17.92
2019-03-31T06:23:17.438Z,18.42
2019-03-31T06:24:23.603Z,19.00
2019-03-31T06:25:30.481Z,17.65
2019-03-31T06:26:36.180Z,18.57
2019-03-31T06:27:42.633Z,18.87
2019-03-31T06:28:49.289Z,20.20
2019-03-31T06:29:55.958Z,19.35
2019-03-31T06:31:02.488Z,18.92
2019-03-31T06:32:09.403Z,19.55
2019-03-31T06:33:15.433Z,18.48
2019-03-31T06:34:22.585Z,18.17
2019-03-31T06:35:28.074Z,18.62
2019-03-31T06:36:34.212Z,19.15
2019-03-31T06:37:40.783Z,19.90
2019-03-31T06:38:47.645Z,18.40
2019-03-31T06:39:54.897Z,19.37
2019-03-31T06:41:01.218Z,19.92
2019-03-31T06:42:06.891Z,19.87
2019-03-31T06:43:12.608Z,20.62
2019-03-31T06:44:18.346Z,19.12
2019-03-31T06:45:24.502Z,19.45
2019-03-31T06:46:30.626Z,19.12
2019-03-31T06:47:36.237Z,19.30
2019-03-31T06:48:42.594Z,19.32
2019-03-31T06:49:48.762Z,19.65
2019-03-31T06:50:55.691Z,19.73
2019-03-31T06:52:02.386Z,20.68
2019-03-31T06:53:08.155Z,20.50
2019-03-31T06:54:14.964Z,22.70
2019-03-31T06:55:20.646Z,22.60
2019-03-31T06:56:27.083Z,24.18
2019-03-31T06:57:33.374Z,27.52
2019-03-31T06:58:39.019Z,27.45
2019-03-31T06:59:45.289Z,29.95
2019-03-31T07:00:51.365Z,31.68
2019-03-31T07:01:58.786Z,32.15
2019-03-31T07:03:04.571Z,35.78
2019-03-31T07:04:10.600Z,37.48
2019-03-31T07:05:16.407Z,38.70
2019-03-31T07:06:23.356Z,39.65
2019-03-31T07:07:29.896Z,39.05
2019-03-31T07:08:37.273Z,39.83
2019-03-31T07:09:43.574Z,40.20
2019-03-31T07:10:50.111Z,39.40
2019-03-31T07:11:56.024Z,40.55
2019-03-31T07:13:02.011Z,39.98
2019-03-31T07:14:09.356Z,40.73
2019-03-31T07:15:21.759Z,41.10
2019-03-31T07:16:28.756Z,41.00
2019-03-31T07:17:36.194Z,41.42
2019-03-31T07:18:43.014Z,40.65
2019-03-31T07:19:49.351Z,40.35
2019-03-31T07:20:56.208Z,40.83
2019-03-31T07:22:01.993Z,41.18
2019-03-31T07:23:08.811Z,40.70
2019-03-31T07:24:15.653Z,40.80
2019-03-31T07:25:21.182Z,43.08
2019-03-31T07:26:28.002Z,41.42
2019-03-31T07:27:34.836Z,44.20
2019-03-31T07:28:41.423Z,41.83
2019-03-31T07:29:48.902Z,42.48
2019-03-31T07:30:55.414Z,43.15
2019-03-31T07:32:02.958Z,42.40
2019-03-31T07:33:08.730Z,42.00
2019-03-31T07:34:15.040Z,42.33
2019-03-31T07:35:20.801Z,41.53
2019-03-31T07:36:27.468Z,42.20
2019-03-31T07:37:46.731Z,43.25
2019-03-31T07:38:41.952Z,40.70
2019-03-31T07:39:48.948Z,39.88
2019-03-31T07:40:55.481Z,41.80
2019-03-31T07:42:03.009Z,42.25
2019-03-31T07:43:09.975Z,43.17
2019-03-31T07:44:15.735Z,42.13
2019-03-31T07:45:21.526Z,42.93
2019-03-31T07:46:27.744Z,43.55
2019-03-31T07:47:33.814Z,41.58
2019-03-31T07:48:40.410Z,42.00
2019-03-31T07:49:46.151Z,42.98
2019-03-31T07:50:51.927Z,42.08
2019-03-31T07:51:57.957Z,41.50
2019-03-31T07:53:05.230Z,39.85
2019-03-31T07:54:11.677Z,42.05
2019-03-31T07:55:19.611Z,41.92
2019-03-31T07:56:25.999Z,41.42
2019-03-31T07:57:32.717Z,42.03
2019-03-31T07:58:38.874Z,42.55
2019-03-31T07:59:45.260Z,40.40
2019-03-31T08:00:50.895Z,40.83
2019-03-31T08:01:57.080Z,41.05
2019-03-31T08:03:03.895Z,42.33
2019-03-31T08:04:09.601Z,39.65
2019-03-31T08:05:15.821Z,42.20
2019-03-31T08:06:24.520Z,41.90
2019-03-31T08:07:31.047Z,40.83
2019-03-31T08:08:37.179Z,41.48
2019-03-31T08:09:43.414Z,40.83
2019-03-31T08:10:49.164Z,41.92
2019-03-31T08:11:56.027Z,41.42
2019-03-31T08:13:01.662Z,41.50
2019-03-31T08:14:07.678Z,40.48
2019-03-31T08:15:13.632Z,41.25
2019-03-31T08:16:20.145Z,39.80
2019-03-31T08:17:28.427Z,40.55
2019-03-31T08:18:35.014Z,39.73
2019-03-31T08:19:41.844Z,38.33
2019-03-31T08:20:48.661Z,40.52
2019-03-31T08:21:54.955Z,41.40
2019-03-31T08:23:01.444Z,39.95
2019-03-31T08:24:07.200Z,39.67
2019-03-31T08:25:16.255Z,40.10
2019-03-31T08:26:23.071Z,40.17
2019-03-31T08:27:28.820Z,39.67
2019-03-31T08:28:34.845Z,40.90
2019-03-31T08:29:41.508Z,39.58
2019-03-31T08:30:49.204Z,40.00
2019-03-31T08:31:55.947Z,40.92
2019-03-31T08:33:02.126Z,41.35
2019-03-31T08:34:07.880Z,40.38
2019-03-31T08:35:13.751Z,38.33
2019-03-31T08:36:19.885Z,39.80
2019-03-31T08:37:25.987Z,38.40
2019-03-31T08:38:32.620Z,39.23
2019-03-31T08:39:40.578Z,39.73
2019-03-31T08:40:46.784Z,39.08
2019-03-31T08:41:53.577Z,38.58
2019-03-31T08:42:59.423Z,39.25
2019-03-31T08:44:05.452Z,40.63
2019-03-31T08:45:12.884Z,40.88
2019-03-31T08:46:19.700Z,40.17
2019-03-31T08:47:25.294Z,39.20
2019-03-31T08:48:32.953Z,40.35
2019-03-31T08:49:39.841Z,40.73
2019-03-31T08:50:46.697Z,41.48
2019-03-31T08:51:54.864Z,40.10
2019-03-31T08:54:16.438Z,40.67
2019-03-31T08:55:22.424Z,40.05
2019-03-31T08:56:28.270Z,41.80
2019-03-31T08:57:34.859Z,40.48
2019-03-31T08:58:41.493Z,41.28
2019-03-31T08:59:48.217Z,40.05
2019-03-31T09:00:57.430Z,39.45
2019-03-31T09:02:22.075Z,38.73
2019-03-31T09:03:28.659Z,40.17
2019-03-31T09:04:34.425Z,39.70
2019-03-31T09:05:40.611Z,39.27
2019-03-31T09:06:47.147Z,39.20
2019-03-31T09:07:53.112Z,37.98
2019-03-31T09:08:58.817Z,40.40
2019-03-31T09:10:05.287Z,39.73
2019-03-31T09:11:11.703Z,37.60
2019-03-31T09:12:17.448Z,38.63
2019-03-31T09:13:24.039Z,39.00
2019-03-31T09:14:30.670Z,38.15
2019-03-31T09:15:38.314Z,40.12
2019-03-31T09:16:44.355Z,39.53
2019-03-31T09:17:50.121Z,40.03
2019-03-31T09:18:55.875Z,39.63
2019-03-31T09:20:02.961Z,37.70
2019-03-31T09:21:10.534Z,39.80
2019-03-31T09:22:17.238Z,39.63
2019-03-31T09:23:22.969Z,38.98
2019-03-31T09:24:29.073Z,39.48
2019-03-31T09:25:35.187Z,39.70
2019-03-31T09:26:41.041Z,40.90
2019-03-31T09:27:47.256Z,39.00
2019-03-31T09:28:53.789Z,41.40
2019-03-31T09:30:00.279Z,41.70
2019-03-31T09:31:06.043Z,39.35
2019-03-31T09:32:12.656Z,39.18
2019-03-31T09:33:19.111Z,38.40
2019-03-31T09:34:26.092Z,39.05
2019-03-31T09:35:32.795Z,38.98
2019-03-31T09:36:38.613Z,40.75
2019-03-31T09:37:44.736Z,40.28
2019-03-31T09:38:51.727Z,42.30
2019-03-31T09:39:58.418Z,40.73
2019-03-31T09:41:04.810Z,40.33
2019-03-31T09:42:11.731Z,41.50
2019-03-31T09:43:17.190Z,41.70
2019-03-31T09:44:24.165Z,41.68
2019-03-31T09:45:31.178Z,42.10
2019-03-31T09:46:37.201Z,40.33
2019-03-31T09:47:43.827Z,41.23
2019-03-31T09:48:49.641Z,39.92
2019-03-31T09:49:56.374Z,41.05
2019-03-31T09:51:02.153Z,40.92
2019-03-31T09:52:08.208Z,41.58
2019-03-31T09:53:16.018Z,41.55
2019-03-31T09:54:22.679Z,40.85
2019-03-31T09:55:29.207Z,42.08
2019-03-31T09:56:37.090Z,40.25
2019-03-31T09:57:44.904Z,40.17
2019-03-31T09:58:51.972Z,39.92
2019-03-31T09:59:58.171Z,40.55
2019-03-31T10:01:07.919Z,41.13
2019-03-31T10:02:12.897Z,41.00
2019-03-31T10:03:19.482Z,40.63
2019-03-31T10:04:25.327Z,40.55
2019-03-31T10:05:32.313Z,40.23
2019-03-31T10:06:39.028Z,39.85
2019-03-31T10:07:46.272Z,39.73
2019-03-31T10:08:53.515Z,40.75
2019-03-31T10:09:59.350Z,40.98
2019-03-31T10:11:05.923Z,39.88
2019-03-31T10:12:11.951Z,40.55
2019-03-31T10:13:17.908Z,41.15
2019-03-31T10:14:24.437Z,39.13
2019-03-31T10:15:31.080Z,39.30
2019-03-31T10:16:37.682Z,38.98
2019-03-31T10:17:43.925Z,39.58
2019-03-31T10:18:50.254Z,40.52
2019-03-31T10:19:56.499Z,39.67
2019-03-31T10:21:02.964Z,39.58
2019-03-31T10:22:08.779Z,39.25
2019-03-31T10:23:15.169Z,40.63
2019-03-31T10:24:20.906Z,38.58
2019-03-31T10:25:26.675Z,41.10
2019-03-31T10:26:32.614Z,40.25
2019-03-31T10:27:39.440Z,37.75
2019-03-31T10:28:45.233Z,39.50
2019-03-31T10:29:51.548Z,38.67
2019-03-31T10:30:57.305Z,38.70
2019-03-31T10:32:03.350Z,39.75
2019-03-31T10:33:09.905Z,39.40
2019-03-31T10:34:16.223Z,38.17
2019-03-31T10:35:22.579Z,39.67
2019-03-31T10:36:43.490Z,37.25
2019-03-31T10:37:37.606Z,39.13
2019-03-31T10:38:44.965Z,37.35
2019-03-31T10:39:51.132Z,37.63
2019-03-31T10:40:58.738Z,38.83
2019-03-31T10:42:04.766Z,37.75
2019-03-31T10:43:11.335Z,37.38
2019-03-31T10:44:17.387Z,38.15
2019-03-31T10:45:23.155Z,36.48
2019-03-31T10:46:30.884Z,35.30
2019-03-31T10:47:37.873Z,38.20
2019-03-31T10:48:45.758Z,37.78
2019-03-31T10:49:52.297Z,37.63
2019-03-31T10:50:58.338Z,37.20
2019-03-31T10:52:03.873Z,36.88
2019-03-31T10:53:09.960Z,35.38
2019-03-31T10:54:16.269Z,36.48
2019-03-31T10:55:21.977Z,36.30
2019-03-31T10:56:28.264Z,36.13
2019-03-31T10:57:34.307Z,35.68
2019-03-31T10:58:40.251Z,35.85
2019-03-31T10:59:46.275Z,33.00
2019-03-31T11:00:52.590Z,34.40
2019-03-31T11:01:59.246Z,36.53
2019-03-31T11:03:07.489Z,35.50
2019-03-31T11:04:14.123Z,33.70
2019-03-31T11:05:25.798Z,33.75
2019-03-31T11:06:32.161Z,33.73
2019-03-31T11:07:38.608Z,33.05
2019-03-31T11:08:48.258Z,33.70
2019-03-31T11:09:54.506Z,34.70
2019-03-31T11:11:00.597Z,33.28
2019-03-31T11:12:07.151Z,34.13
2019-03-31T11:13:12.976Z,34.00
2019-03-31T11:14:19.038Z,33.00
2019-03-31T11:15:24.803Z,33.38
2019-03-31T11:16:31.621Z,32.85
2019-03-31T11:17:37.899Z,32.25
2019-03-31T11:18:44.687Z,32.65
2019-03-31T11:19:51.233Z,31.27
2019-03-31T11:20:59.164Z,31.73
2019-03-31T11:22:22.934Z,31.40
2019-03-31T11:23:31.138Z,30.52
2019-03-31T11:24:38.570Z,30.08
2019-03-31T11:25:44.357Z,29.90
2019-03-31T11:26:50.975Z,30.70
2019-03-31T11:27:58.591Z,31.27
2019-03-31T11:29:05.150Z,30.25
2019-03-31T11:30:11.219Z,27.85
2019-03-31T11:31:18.074Z,26.75
2019-03-31T11:32:25.959Z,28.00
2019-03-31T11:33:32.041Z,27.30
2019-03-31T11:34:39.602Z,25.80
2019-03-31T11:35:45.610Z,25.45
2019-03-31T11:36:51.042Z,25.52
2019-03-31T11:37:57.965Z,25.02
2019-03-31T11:39:06.854Z,23.70
2019-03-31T11:40:14.247Z,23.32
2019-03-31T11:41:20.779Z,23.80
2019-03-31T11:42:27.587Z,25.00
2019-03-31T11:43:33.847Z,25.12
2019-03-31T11:44:39.842Z,24.15
2019-03-31T11:45:49.311Z,23.27
2019-03-31T11:46:55.210Z,22.95
2019-03-31T11:48:00.959Z,22.65
2019-03-31T11:49:07.367Z,22.17
2019-03-31T11:50:13.188Z,21.57
2019-03-31T11:51:19.782Z,22.60
2019-03-31T11:52:25.827Z,21.65
2019-03-31T11:53:32.653Z,21.05
2019-03-31T11:54:38.804Z,21.68
2019-03-31T11:55:45.295Z,22.87
2019-03-31T11:56:50.956Z,20.95
2019-03-31T11:57:57.380Z,21.27
2019-03-31T11:59:02.879Z,20.32
2019-03-31T12:00:12.012Z,21.07
2019-03-31T12:01:17.516Z,21.25
2019-03-31T12:02:27.447Z,20.68
2019-03-31T12:03:32.047Z,19.82
2019-03-31T12:04:38.945Z,19.55
2019-03-31T12:05:45.973Z,20.52
2019-03-31T12:06:52.652Z,19.65
2019-03-31T12:07:59.141Z,18.90
2019-03-31T12:09:06.571Z,19.35
2019-03-31T12:10:13.710Z,19.60
2019-03-31T12:11:20.795Z,19.80
2019-03-31T12:12:28.371Z,19.05
2019-03-31T12:13:33.967Z,18.17
2019-03-31T12:14:39.545Z,18.40
2019-03-31T12:15:46.180Z,18.80
2019-03-31T12:16:52.093Z,18.67
2019-03-31T12:17:58.997Z,17.62
2019-03-31T12:19:05.824Z,17.98
2019-03-31T12:20:12.720Z,16.73
2019-03-31T12:21:18.940Z,17.50
2019-03-31T12:22:24.601Z,17.70
2019-03-31T12:23:31.468Z,17.27
2019-03-31T12:24:38.140Z,17.12
2019-03-31T12:25:44.592Z,16.70
2019-03-31T12:26:51.551Z,16.82
2019-03-31T12:27:57.018Z,16.10
2019-03-31T12:29:03.567Z,16.62
2019-03-31T12:30:09.758Z,16.42
2019-03-31T12:31:16.888Z,16.75
2019-03-31T12:32:24.264Z,15.90
2019-03-31T12:33:31.163Z,16.12
2019-03-31T12:34:37.246Z,16.23
2019-03-31T12:35:43.316Z,16.62
2019-03-31T12:36:50.164Z,15.20
2019-03-31T12:37:55.910Z,15.75
2019-03-31T12:39:01.655Z,15.85
2019-03-31T12:40:07.817Z,15.43
2019-03-31T12:41:14.711Z,15.75
2019-03-31T12:42:20.695Z,15.60
2019-03-31T12:43:27.262Z,15.25
2019-03-31T12:44:32.938Z,15.30
2019-03-31T12:45:42.824Z,15.83
2019-03-31T12:46:47.662Z,16.17
2019-03-31T12:47:54.175Z,15.48
2019-03-31T12:48:59.871Z,15.45
2019-03-31T12:50:05.994Z,15.93
2019-03-31T12:51:11.490Z,16.07
2019-03-31T12:52:18.826Z,15.38
2019-03-31T12:53:25.450Z,16.12
2019-03-31T12:54:32.296Z,15.43
2019-03-31T12:55:39.496Z,15.25
2019-03-31T12:56:45.153Z,15.83
2019-03-31T12:57:52.033Z,15.25
2019-03-31T12:58:58.395Z,15.72
2019-03-31T13:00:04.380Z,16.07
2019-03-31T13:01:11.220Z,15.78
2019-03-31T13:02:18.027Z,16.40
2019-03-31T13:03:24.603Z,15.50
2019-03-31T13:04:30.629Z,15.95
2019-03-31T13:05:37.570Z,15.48
2019-03-31T13:06:47.023Z,14.90
2019-03-31T13:07:56.561Z,15.40
2019-03-31T13:09:02.317Z,14.95
2019-03-31T13:10:08.649Z,15.00
2019-03-31T13:11:14.708Z,15.18
2019-03-31T13:12:21.731Z,15.00
2019-03-31T13:13:28.255Z,15.13
2019-03-31T13:14:34.824Z,15.00
2019-03-31T13:15:41.696Z,14.25
2019-03-31T13:16:48.359Z,15.00
2019-03-31T13:17:54.841Z,14.47
2019-03-31T13:19:00.837Z,14.58
2019-03-31T13:20:07.318Z,14.68
2019-03-31T13:21:13.071Z,13.65
2019-03-31T13:22:19.675Z,14.70
2019-03-31T13:23:26.279Z,14.00
2019-03-31T13:24:33.612Z,14.43
2019-03-31T13:25:41.417Z,14.00
2019-03-31T13:26:47.487Z,13.72
2019-03-31T13:27:53.258Z,13.50
2019-03-31T13:28:59.700Z,14.20
2019-03-31T13:30:06.726Z,12.93
2019-03-31T13:31:12.683Z,15.32
2019-03-31T13:32:19.667Z,14.15
2019-03-31T13:33:26.412Z,15.43
2019-03-31T13:34:32.988Z,14.58
2019-03-31T13:35:41.966Z,15.18
2019-03-31T13:36:47.735Z,14.80
2019-03-31T13:37:54.544Z,16.02
2019-03-31T13:39:01.484Z,14.40
2019-03-31T13:40:08.312Z,15.15
2019-03-31T13:41:14.833Z,14.90
2019-03-31T13:42:20.501Z,13.48
2019-03-31T13:43:26.914Z,14.33
2019-03-31T13:44:34.296Z,19.45
2019-03-31T13:45:41.649Z,19.05
2019-03-31T13:46:47.752Z,16.10
2019-03-31T13:47:54.380Z,14.58
2019-03-31T13:49:00.870Z,13.43
2019-03-31T13:50:07.156Z,14.30
2019-03-31T13:51:13.665Z,13.18
2019-03-31T13:52:19.644Z,13.70
2019-03-31T13:53:25.901Z,12.93
2019-03-31T13:54:31.748Z,13.72
2019-03-31T13:55:37.594Z,14.07
2019-03-31T13:56:48.740Z,13.00
2019-03-31T13:57:54.384Z,13.08
2019-03-31T13:59:01.427Z,13.38
2019-03-31T14:00:09.142Z,13.32
2019-03-31T14:01:15.798Z,13.58
2019-03-31T14:02:21.837Z,13.38
2019-03-31T14:03:28.458Z,13.18
2019-03-31T14:04:45.301Z,14.38
2019-03-31T14:05:43.911Z,13.50
2019-03-31T14:06:50.475Z,12.63
2019-03-31T14:07:56.598Z,14.03
2019-03-31T14:09:05.317Z,14.00
2019-03-31T14:10:11.288Z,13.80
2019-03-31T14:11:21.505Z,13.88
2019-03-31T14:12:25.869Z,13.80
2019-03-31T14:13:31.613Z,13.32
2019-03-31T14:14:38.211Z,13.40
2019-03-31T14:15:43.689Z,13.48
2019-03-31T14:16:49.599Z,13.05
2019-03-31T14:17:55.699Z,13.32
2019-03-31T14:19:02.422Z,13.88
2019-03-31T14:20:08.197Z,13.20
2019-03-31T14:21:14.234Z,12.98
2019-03-31T14:22:21.534Z,13.95